Time;durP1;ratioP1;P1;durP2;ratioP2;P2;SDS_P1;SDS_P2;PMS_P1;PMS_P2;Temp;Humidity;BMP_temperature;BMP_pressure;BME280_temperature;BME280_humidity;BME280_pressure;Samples;Min_cycle;Max_cycle;Signal;HPM_P1;HPM_P2
2021/03/06 00:00:06;;;;;;;8.17;5.30;;;0.90;61.40;;;;;;5013178;28;20425;-77
2021/03/06 00:02:32;;;;;;;9.93;5.27;;;0.90;61.50;;;;;;5010478;28;20250;-76
2021/03/06 00:04:58;;;;;;;12.47;6.60;;;0.80;61.80;;;;;;5017344;28;20446;-78
2021/03/06 00:07:23;;;;;;;12.40;6.10;;;0.80;62.00;;;;;;4987475;28;20203;-74
2021/03/06 00:09:49;;;;;;;25.87;12.40;;;0.80;62.30;;;;;;4994062;28;20187;-74
2021/03/06 00:12:15;;;;;;;11.37;6.10;;;0.70;62.40;;;;;;5013248;28;20536;-74
2021/03/06 00:14:40;;;;;;;13.30;6.30;;;0.70;62.50;;;;;;4995751;28;20273;-74
2021/03/06 00:17:06;;;;;;;10.43;5.70;;;0.70;62.70;;;;;;5013612;28;20171;-76
2021/03/06 00:19:32;;;;;;;10.57;5.10;;;0.80;63.00;;;;;;5013155;28;20210;-75
2021/03/06 00:21:57;;;;;;;11.33;5.97;;;0.70;63.00;;;;;;5009292;28;20653;-76
2021/03/06 00:24:24;;;;;;;6.67;4.80;;;0.70;63.30;;;;;;4997344;28;20193;-75
2021/03/06 00:26:50;;;;;;;9.60;5.50;;;0.70;63.60;;;;;;5014071;28;20190;-74
2021/03/06 00:29:16;;;;;;;19.03;7.10;;;0.70;63.60;;;;;;4983880;28;20442;-75
2021/03/06 00:31:42;;;;;;;48.67;18.17;;;0.60;63.50;;;;;;4996361;28;20403;-75
2021/03/06 00:34:08;;;;;;;31.17;11.97;;;0.50;63.70;;;;;;4991482;28;20417;-75
2021/03/06 00:36:34;;;;;;;20.70;11.00;;;0.50;64.10;;;;;;5016313;28;20456;-76
2021/03/06 00:39:00;;;;;;;8.67;5.80;;;0.50;64.40;;;;;;4989555;28;20661;-71
2021/03/06 00:41:26;;;;;;;9.67;6.20;;;0.50;64.70;;;;;;4993379;28;20426;-72
2021/03/06 00:43:52;;;;;;;11.00;6.27;;;0.50;64.90;;;;;;4992552;28;20430;-72
2021/03/06 00:46:17;;;;;;;10.73;5.90;;;0.40;65.00;;;;;;4990389;28;20411;-71
2021/03/06 00:48:43;;;;;;;12.47;7.17;;;0.40;65.20;;;;;;4972202;28;20195;-72
2021/03/06 00:51:10;;;;;;;27.60;14.13;;;0.40;65.50;;;;;;4973762;28;20589;-71
2021/03/06 00:53:37;;;;;;;34.47;13.87;;;0.40;65.60;;;;;;4976652;28;20559;-71
2021/03/06 00:56:05;;;;;;;35.17;14.03;;;0.30;65.60;;;;;;4978262;28;20398;-72
2021/03/06 00:58:35;;;;;;;22.17;10.40;;;0.30;65.70;;;;;;4994111;28;20409;-70
2021/03/06 01:01:01;;;;;;;17.60;8.83;;;0.40;66.30;;;;;;4994062;28;20428;-71
2021/03/06 01:03:27;;;;;;;9.60;6.50;;;0.40;66.10;;;;;;4993125;28;20831;-71
2021/03/06 01:05:53;;;;;;;13.80;8.37;;;0.40;66.20;;;;;;4992825;28;20442;-71
2021/03/06 01:08:19;;;;;;;12.27;8.10;;;0.30;66.10;;;;;;4997499;28;20257;-74
2021/03/06 01:10:45;;;;;;;16.23;8.07;;;0.30;66.20;;;;;;5010971;28;20911;-71
2021/03/06 01:13:11;;;;;;;16.50;7.47;;;0.30;66.30;;;;;;4996355;28;20237;-72
2021/03/06 01:15:37;;;;;;;31.77;11.67;;;0.20;66.50;;;;;;4995825;28;20513;-72
2021/03/06 01:18:05;;;;;;;17.03;7.23;;;0.20;66.80;;;;;;4995529;28;20418;-71
2021/03/06 01:20:31;;;;;;;14.17;6.60;;;0.20;66.90;;;;;;4992000;28;20465;-71
2021/03/06 01:22:57;;;;;;;7.10;5.80;;;0.20;67.30;;;;;;5014108;28;20418;-71
2021/03/06 01:25:23;;;;;;;16.90;6.57;;;0.30;68.20;;;;;;5015590;28;20420;-70
2021/03/06 01:27:49;;;;;;;15.70;6.57;;;0.30;67.40;;;;;;5015796;28;20284;-71
2021/03/06 01:30:16;;;;;;;13.93;6.23;;;0.30;67.60;;;;;;4996190;28;21257;-71
2021/03/06 01:32:42;;;;;;;11.03;6.87;;;0.30;67.40;;;;;;5015086;28;20302;-71
2021/03/06 01:35:09;;;;;;;14.70;7.20;;;0.30;67.40;;;;;;5015025;28;21053;-71
2021/03/06 01:37:36;;;;;;;81.60;24.80;;;0.30;67.60;;;;;;5015241;28;20768;-70
2021/03/06 01:40:07;;;;;;;39.10;16.33;;;0.30;67.70;;;;;;5014801;28;20979;-70
2021/03/06 01:42:33;;;;;;;119.77;38.57;;;0.30;67.70;;;;;;5015030;28;20485;-71
2021/03/06 01:44:59;;;;;;;105.00;32.63;;;0.30;67.50;;;;;;4996537;28;20525;-71
2021/03/06 01:47:24;;;;;;;69.57;23.10;;;0.20;67.20;;;;;;5014956;28;20548;-70
2021/03/06 01:49:50;;;;;;;173.77;61.37;;;0.10;67.10;;;;;;4997396;28;20180;-73
2021/03/06 01:52:16;;;;;;;122.23;37.67;;;0.10;67.20;;;;;;5013277;28;20163;-71
2021/03/06 01:54:43;;;;;;;76.40;28.37;;;0.00;67.30;;;;;;4998240;28;20176;-70
2021/03/06 01:57:09;;;;;;;200.43;58.80;;;0.00;67.80;;;;;;4997455;28;20437;-72
2021/03/06 01:59:35;;;;;;;65.20;24.50;;;0.00;68.00;;;;;;4996923;28;20473;-71
2021/03/06 02:02:02;;;;;;;57.87;26.67;;;0.00;68.00;;;;;;4998267;28;20430;-71
2021/03/06 02:04:28;;;;;;;39.63;18.07;;;-0.10;68.20;;;;;;5015072;28;20452;-71
2021/03/06 02:06:54;;;;;;;83.27;28.93;;;-0.10;68.40;;;;;;4998228;28;20480;-73
2021/03/06 02:09:20;;;;;;;60.87;19.27;;;-0.10;68.70;;;;;;5013707;28;20184;-72
2021/03/06 02:12:27;;;;;;;101.40;30.63;;;-0.10;68.90;;;;;;5017526;28;20889;-72
2021/03/06 02:15:10;;;;;;;110.07;34.87;;;-0.10;69.30;;;;;;4967317;29;20173;-71
2021/03/06 02:17:48;;;;;;;122.90;39.97;;;-0.20;69.40;;;;;;4970023;29;20409;-70
2021/03/06 02:20:40;;;;;;;85.80;31.80;;;-0.20;69.60;;;;;;4970248;28;20482;-71
2021/03/06 02:23:27;;;;;;;75.00;24.63;;;-0.20;69.70;;;;;;4979728;28;20419;-72
2021/03/06 02:26:11;;;;;;;81.03;24.03;;;-0.20;70.00;;;;;;5017679;28;20454;-72
2021/03/06 02:28:51;;;;;;;83.17;25.70;;;-0.20;70.40;;;;;;5016512;28;20410;-72
2021/03/06 02:31:18;;;;;;;145.27;42.07;;;-0.10;70.80;;;;;;5015242;28;20533;-72
2021/03/06 02:33:56;;;;;;;68.03;23.07;;;-0.10;70.50;;;;;;5021846;28;20425;-70
2021/03/06 02:36:24;;;;;;;109.83;31.97;;;-0.20;70.50;;;;;;4996686;28;20427;-71
2021/03/06 02:38:53;;;;;;;116.10;32.70;;;-0.20;70.80;;;;;;4996008;28;20447;-71
2021/03/06 02:41:19;;;;;;;148.67;39.97;;;-0.20;70.90;;;;;;4994279;28;20453;-70
2021/03/06 02:43:45;;;;;;;132.27;40.93;;;-0.20;71.00;;;;;;4994285;28;20426;-72
2021/03/06 02:46:11;;;;;;;58.47;18.13;;;-0.20;71.00;;;;;;4994905;28;20419;-72
2021/03/06 02:48:37;;;;;;;120.40;34.40;;;-0.20;71.20;;;;;;4978972;28;20192;-71
2021/03/06 02:51:03;;;;;;;104.57;32.23;;;-0.20;71.20;;;;;;5005433;28;20176;-71
2021/03/06 02:53:29;;;;;;;74.07;25.90;;;-0.20;71.30;;;;;;4994159;28;20857;-71
2021/03/06 02:55:54;;;;;;;32.27;12.47;;;-0.20;71.50;;;;;;4994306;28;20417;-71
2021/03/06 02:58:52;;;;;;;17.33;7.37;;;-0.30;71.60;;;;;;4993685;28;20450;-72
2021/03/06 03:01:54;;;;;;;14.17;7.23;;;-0.30;71.80;;;;;;5011702;28;20539;-71
2021/03/06 03:05:05;;;;;;;13.13;9.40;;;-0.30;71.90;;;;;;5013657;28;20410;-72
2021/03/06 03:07:48;;;;;;;12.00;6.57;;;-0.40;72.00;;;;;;4933588;28;20426;-73
2021/03/06 03:10:17;;;;;;;10.30;7.57;;;-0.40;72.30;;;;;;4993374;28;20419;-72
2021/03/06 03:12:55;;;;;;;15.60;9.23;;;-0.40;72.60;;;;;;4992796;28;20884;-73
2021/03/06 03:15:36;;;;;;;95.87;28.40;;;-0.40;72.50;;;;;;4976675;28;20535;-71
2021/03/06 03:18:03;;;;;;;34.03;15.50;;;-0.50;73.40;;;;;;4994080;28;20462;-71
2021/03/06 03:20:39;;;;;;;13.53;8.20;;;-0.50;72.80;;;;;;5007391;28;20470;-70
2021/03/06 03:23:12;;;;;;;13.27;7.63;;;-0.50;73.10;;;;;;5011961;28;20417;-72
2021/03/06 03:25:40;;;;;;;19.80;9.50;;;-0.50;73.40;;;;;;5012904;28;20473;-71
2021/03/06 03:28:08;;;;;;;46.20;18.73;;;-0.50;73.70;;;;;;5012667;28;20414;-71
2021/03/06 03:30:35;;;;;;;19.67;9.00;;;-0.50;73.70;;;;;;5013113;28;20512;-71
2021/03/06 03:33:03;;;;;;;22.60;8.73;;;-0.50;73.70;;;;;;4978615;28;20430;-71
2021/03/06 03:35:30;;;;;;;11.00;8.50;;;-0.50;73.70;;;;;;4978419;28;20422;-72
2021/03/06 03:37:57;;;;;;;11.97;7.70;;;-0.60;73.60;;;;;;4996203;28;20959;-70
2021/03/06 03:40:23;;;;;;;14.97;8.30;;;-0.60;74.10;;;;;;5012403;28;20478;-71
2021/03/06 03:42:49;;;;;;;12.00;7.57;;;-0.50;74.40;;;;;;4995173;28;20497;-70
2021/03/06 03:45:19;;;;;;;10.10;6.67;;;-0.50;74.30;;;;;;4997216;28;20489;-72
2021/03/06 03:47:45;;;;;;;13.93;8.70;;;-0.60;74.20;;;;;;4993492;28;20422;-70
2021/03/06 03:50:14;;;;;;;17.20;7.37;;;-0.60;74.20;;;;;;4992651;28;20534;-71
2021/03/06 03:52:42;;;;;;;14.43;7.83;;;-0.60;74.30;;;;;;4983290;28;20430;-71
2021/03/06 03:55:09;;;;;;;28.27;8.93;;;-0.60;74.30;;;;;;4998535;28;20434;-72
2021/03/06 03:57:36;;;;;;;15.03;7.27;;;-0.60;74.60;;;;;;4975914;28;20446;-70
2021/03/06 04:00:09;;;;;;;17.00;8.00;;;-0.60;74.80;;;;;;4992405;28;20435;-70
2021/03/06 04:02:35;;;;;;;11.63;7.10;;;-0.70;74.90;;;;;;4975674;28;20780;-70
2021/03/06 04:05:01;;;;;;;13.07;7.80;;;-0.70;75.00;;;;;;5005191;28;20469;-70
2021/03/06 04:07:27;;;;;;;12.10;6.20;;;-0.70;75.10;;;;;;5012300;28;20410;-71
2021/03/06 04:09:53;;;;;;;15.13;7.23;;;-0.70;75.40;;;;;;5011756;28;20955;-71
2021/03/06 04:12:19;;;;;;;20.53;7.97;;;-0.70;76.50;;;;;;5012432;28;20198;-70
2021/03/06 04:14:44;;;;;;;13.87;8.13;;;-0.60;76.50;;;;;;5001972;28;20526;-70
2021/03/06 04:17:13;;;;;;;17.27;7.40;;;-0.60;76.30;;;;;;4992615;28;20246;-72
2021/03/06 04:19:38;;;;;;;11.73;6.73;;;-0.60;76.50;;;;;;4992146;28;20211;-70
2021/03/06 04:22:04;;;;;;;13.17;6.83;;;-0.60;76.70;;;;;;4975117;28;20465;-71
2021/03/06 04:24:31;;;;;;;13.57;7.97;;;-0.50;76.70;;;;;;4982872;28;20167;-70
2021/03/06 04:26:56;;;;;;;10.47;6.97;;;-0.50;76.80;;;;;;5012035;28;20410;-71
2021/03/06 04:29:23;;;;;;;16.70;8.50;;;-0.50;77.40;;;;;;5012050;28;20958;-71
2021/03/06 04:31:49;;;;;;;12.97;7.30;;;-0.50;76.70;;;;;;5011719;28;20172;-71
2021/03/06 04:34:15;;;;;;;15.93;7.97;;;-0.50;76.80;;;;;;5006408;28;20509;-70
2021/03/06 04:36:42;;;;;;;21.43;9.63;;;-0.50;76.90;;;;;;4993318;28;20550;-70
2021/03/06 04:39:08;;;;;;;10.07;7.60;;;-0.40;76.90;;;;;;4993030;28;20446;-72
2021/03/06 04:41:33;;;;;;;14.70;8.00;;;-0.40;76.50;;;;;;4993741;28;20407;-70
2021/03/06 04:43:59;;;;;;;14.03;8.00;;;-0.50;76.50;;;;;;5001778;28;20568;-71
2021/03/06 04:46:25;;;;;;;10.50;7.20;;;-0.50;76.80;;;;;;5018321;28;20171;-70
2021/03/06 04:48:51;;;;;;;15.07;7.07;;;-0.50;77.10;;;;;;5015933;28;20453;-72
2021/03/06 04:51:16;;;;;;;17.30;8.40;;;-0.60;77.20;;;;;;5015749;28;21099;-72
2021/03/06 04:53:42;;;;;;;14.23;7.50;;;-0.60;77.70;;;;;;4993927;28;20222;-70
2021/03/06 04:56:08;;;;;;;15.10;7.77;;;-0.60;77.60;;;;;;4996150;28;20411;-71
2021/03/06 04:58:33;;;;;;;16.63;7.60;;;-0.60;77.50;;;;;;5004640;28;20194;-70
2021/03/06 05:00:59;;;;;;;17.47;7.90;;;-0.60;77.40;;;;;;5015446;28;20160;-70
2021/03/06 05:03:25;;;;;;;12.27;7.90;;;-0.70;77.60;;;;;;5015326;28;20672;-71
2021/03/06 05:05:50;;;;;;;11.53;7.10;;;-0.70;77.90;;;;;;5015679;28;20171;-72
2021/03/06 05:08:16;;;;;;;11.70;7.13;;;-0.60;78.40;;;;;;5009662;28;20660;-71
2021/03/06 05:10:42;;;;;;;14.17;7.80;;;-0.60;78.10;;;;;;4978313;28;20199;-72
2021/03/06 05:13:07;;;;;;;15.23;7.27;;;-0.60;77.80;;;;;;4995973;28;20164;-71
2021/03/06 05:15:33;;;;;;;13.27;7.70;;;-0.60;77.60;;;;;;4996108;28;20263;-71
2021/03/06 05:17:59;;;;;;;12.50;7.80;;;-0.60;77.70;;;;;;5001858;28;20199;-71
2021/03/06 05:20:25;;;;;;;11.83;7.83;;;-0.60;77.60;;;;;;4989583;28;20195;-73
2021/03/06 05:22:51;;;;;;;12.70;8.63;;;-0.70;77.30;;;;;;4995735;28;20414;-72
2021/03/06 05:25:16;;;;;;;12.93;7.00;;;-0.70;77.30;;;;;;4995571;28;20183;-73
2021/03/06 05:27:42;;;;;;;13.50;7.80;;;-0.80;77.40;;;;;;4996814;28;20852;-72
2021/03/06 05:30:08;;;;;;;14.73;9.47;;;-0.80;77.50;;;;;;4995519;28;20234;-71
2021/03/06 05:32:35;;;;;;;15.37;8.73;;;-0.90;77.60;;;;;;4995643;28;20175;-71
2021/03/06 05:35:01;;;;;;;14.37;7.20;;;-1.00;78.00;;;;;;5004975;28;20428;-70
2021/03/06 05:37:26;;;;;;;12.37;6.60;;;-1.00;78.40;;;;;;5013764;28;20458;-72
2021/03/06 05:39:52;;;;;;;21.73;8.03;;;-1.00;78.60;;;;;;4995158;28;20793;-72
2021/03/06 05:42:18;;;;;;;12.87;7.67;;;-1.00;78.70;;;;;;4995514;28;20160;-72
2021/03/06 05:44:44;;;;;;;15.00;8.53;;;-1.10;79.40;;;;;;5007393;28;20237;-72
2021/03/06 05:47:12;;;;;;;14.47;7.97;;;-1.10;78.80;;;;;;5015139;28;20191;-71
2021/03/06 05:49:38;;;;;;;11.83;7.70;;;-1.10;78.90;;;;;;4995908;28;20282;-72
2021/03/06 05:52:06;;;;;;;13.97;7.57;;;-1.20;79.10;;;;;;4995356;28;20515;-72
2021/03/06 05:54:35;;;;;;;15.10;7.63;;;-1.20;79.30;;;;;;4995704;28;20426;-72
2021/03/06 05:57:03;;;;;;;11.13;8.33;;;-1.20;79.40;;;;;;4995069;28;20454;-73
2021/03/06 05:59:29;;;;;;;10.97;6.97;;;-1.20;79.60;;;;;;4994414;28;20437;-71
2021/03/06 06:01:56;;;;;;;17.20;9.90;;;-1.20;79.80;;;;;;5013446;28;20406;-71
2021/03/06 06:04:26;;;;;;;11.50;8.20;;;-1.20;79.90;;;;;;5014698;28;20409;-71
2021/03/06 06:06:53;;;;;;;14.23;8.83;;;-1.20;80.00;;;;;;5015384;28;20469;-69
2021/03/06 06:09:19;;;;;;;13.27;8.00;;;-1.20;80.00;;;;;;4999373;28;20435;-71
2021/03/06 06:11:44;;;;;;;18.30;9.40;;;-1.20;79.90;;;;;;5011646;28;20516;-73
2021/03/06 06:14:10;;;;;;;19.70;8.60;;;-1.20;79.80;;;;;;5032007;28;20414;-70
2021/03/06 06:16:36;;;;;;;12.50;7.10;;;-1.20;79.70;;;;;;5029134;28;20227;-71
2021/03/06 06:19:03;;;;;;;16.50;7.97;;;-1.20;79.70;;;;;;5005118;28;20253;-71
2021/03/06 06:21:38;;;;;;;15.93;7.90;;;-1.10;79.80;;;;;;5016978;28;20171;-72
2021/03/06 06:24:19;;;;;;;12.43;7.67;;;-1.10;79.50;;;;;;5016986;28;20461;-72
2021/03/06 06:27:12;;;;;;;13.20;7.70;;;-1.00;79.30;;;;;;4992357;28;20406;-70
2021/03/06 06:29:46;;;;;;;11.40;6.63;;;-1.00;79.20;;;;;;5028678;28;20446;-72
2021/03/06 06:32:12;;;;;;;9.63;7.43;;;-1.00;78.80;;;;;;5026964;28;20461;-71
2021/03/06 06:34:40;;;;;;;12.50;6.90;;;-0.90;78.80;;;;;;5014395;28;20441;-72
2021/03/06 06:37:13;;;;;;;10.17;6.90;;;-0.90;78.50;;;;;;4997000;28;20544;-70
2021/03/06 06:39:41;;;;;;;10.30;6.33;;;-0.80;78.10;;;;;;4998508;28;20462;-71
2021/03/06 06:42:07;;;;;;;8.13;6.30;;;-0.70;77.70;;;;;;4994800;28;20807;-73
2021/03/06 06:44:34;;;;;;;13.23;6.40;;;-0.60;77.40;;;;;;4994993;28;20414;-71
2021/03/06 06:47:13;;;;;;;10.77;6.67;;;-0.60;76.50;;;;;;5013766;28;20430;-73
2021/03/06 06:49:47;;;;;;;9.53;6.23;;;-0.50;76.10;;;;;;4996079;28;20845;-72
2021/03/06 06:52:14;;;;;;;11.10;6.80;;;-0.50;75.80;;;;;;4996691;28;20529;-72
2021/03/06 06:54:40;;;;;;;11.23;6.23;;;-0.40;75.30;;;;;;5014492;28;20457;-71
2021/03/06 06:57:09;;;;;;;9.93;7.23;;;-0.30;74.90;;;;;;4976537;28;20534;-73
2021/03/06 06:59:37;;;;;;;13.40;8.40;;;-0.30;74.60;;;;;;4976884;28;20497;-72
2021/03/06 07:02:09;;;;;;;13.90;8.63;;;-0.20;74.60;;;;;;4996215;28;20407;-72
2021/03/06 07:04:46;;;;;;;11.60;7.87;;;-0.20;74.60;;;;;;5013832;28;20811;-71
2021/03/06 07:07:13;;;;;;;12.33;6.90;;;-0.10;74.70;;;;;;5003543;28;20422;-72
2021/03/06 07:09:54;;;;;;;11.37;8.47;;;-0.10;74.40;;;;;;4994741;28;20846;-71
2021/03/06 07:12:21;;;;;;;11.07;8.07;;;0.00;74.30;;;;;;5010042;28;20943;-71
2021/03/06 07:14:47;;;;;;;8.63;5.90;;;0.10;74.40;;;;;;4977498;28;20964;-70
2021/03/06 07:17:12;;;;;;;10.17;7.33;;;0.10;73.80;;;;;;4994770;28;20461;-72
2021/03/06 07:19:42;;;;;;;9.20;6.83;;;0.10;73.00;;;;;;4988329;28;20249;-72
2021/03/06 07:22:08;;;;;;;15.93;7.27;;;0.20;73.50;;;;;;5013465;28;20174;-73
2021/03/06 07:24:34;;;;;;;10.63;6.70;;;0.20;73.40;;;;;;5013469;28;20405;-72
2021/03/06 07:27:00;;;;;;;8.87;6.50;;;0.30;73.50;;;;;;4996061;28;20174;-72
2021/03/06 07:29:27;;;;;;;9.47;6.00;;;0.40;73.10;;;;;;4993837;28;20444;-74
2021/03/06 07:31:55;;;;;;;14.43;6.77;;;0.50;72.30;;;;;;5013843;28;20414;-72
2021/03/06 07:34:23;;;;;;;15.07;8.10;;;0.60;72.10;;;;;;5005187;28;20468;-73
2021/03/06 07:36:53;;;;;;;14.10;6.40;;;0.70;71.80;;;;;;5006152;28;20866;-73
2021/03/06 07:39:18;;;;;;;11.33;6.17;;;0.80;70.70;;;;;;4999970;28;20580;-73
2021/03/06 07:41:56;;;;;;;6.60;5.87;;;0.90;69.60;;;;;;5010685;28;20868;-73
2021/03/06 07:44:23;;;;;;;10.73;6.37;;;1.00;67.50;;;;;;5014436;28;20175;-73
2021/03/06 07:46:51;;;;;;;12.73;6.57;;;1.10;66.60;;;;;;4994499;28;20528;-71
2021/03/06 07:49:17;;;;;;;12.77;6.00;;;1.20;66.00;;;;;;4994204;28;20536;-74
2021/03/06 07:51:45;;;;;;;6.97;5.47;;;1.30;65.40;;;;;;4991484;28;20429;-71
2021/03/06 07:54:14;;;;;;;11.93;6.27;;;1.40;64.80;;;;;;5011870;28;20417;-70
2021/03/06 07:56:42;;;;;;;7.57;5.03;;;1.60;63.20;;;;;;4993346;28;20791;-73
2021/03/06 07:59:08;;;;;;;10.37;5.30;;;1.70;63.00;;;;;;4976006;28;20442;-71
2021/03/06 08:01:36;;;;;;;8.30;5.00;;;2.30;63.10;;;;;;4993075;28;20407;-74
2021/03/06 08:04:03;;;;;;;8.03;5.10;;;3.70;59.70;;;;;;4992669;28;20507;-72
2021/03/06 08:06:32;;;;;;;7.40;4.60;;;5.20;55.80;;;;;;4991957;28;20506;-73
2021/03/06 08:09:05;;;;;;;11.23;5.10;;;6.20;50.40;;;;;;5001890;28;20907;-71
2021/03/06 08:11:34;;;;;;;12.00;5.73;;;6.80;49.30;;;;;;5012471;28;20461;-73
2021/03/06 08:14:05;;;;;;;8.97;5.73;;;7.50;48.50;;;;;;4995128;28;20418;-73
2021/03/06 08:16:32;;;;;;;8.03;5.40;;;8.00;47.40;;;;;;5012285;28;20923;-73
2021/03/06 08:19:10;;;;;;;9.60;4.80;;;8.40;45.50;;;;;;5002944;28;20446;-73
2021/03/06 08:21:41;;;;;;;10.53;5.10;;;8.20;43.80;;;;;;5000975;28;20433;-75
2021/03/06 08:26:51;;;;;;;5.90;5.10;;;8.50;42.70;;;;;;5008637;28;20428;-71
2021/03/06 08:29:23;;;;;;;7.37;5.27;;;9.10;42.50;;;;;;4977276;28;20437;-73
2021/03/06 08:32:11;;;;;;;12.20;4.70;;;9.60;41.80;;;;;;4994347;28;20501;-72
2021/03/06 08:34:48;;;;;;;6.87;4.90;;;10.10;40.00;;;;;;5012593;28;20390;-73
2021/03/06 08:37:21;;;;;;;5.00;4.43;;;10.70;39.20;;;;;;4998171;28;20462;-71
2021/03/06 08:39:54;;;;;;;7.73;4.40;;;11.40;38.20;;;;;;5011678;28;20769;-73
2021/03/06 08:42:23;;;;;;;6.40;5.80;;;11.90;36.70;;;;;;5014194;28;20425;-73
2021/03/06 08:44:50;;;;;;;6.17;4.23;;;11.80;34.60;;;;;;5015718;28;20421;-74
2021/03/06 08:47:29;;;;;;;6.60;4.80;;;12.30;35.40;;;;;;5016685;28;20484;-74
2021/03/06 08:49:56;;;;;;;10.73;5.30;;;13.00;34.80;;;;;;4994275;28;20450;-72
2021/03/06 08:52:24;;;;;;;6.07;5.10;;;13.50;33.60;;;;;;4974950;28;20411;-73
2021/03/06 08:54:50;;;;;;;7.40;5.53;;;13.60;31.70;;;;;;4993088;28;20473;-73
2021/03/06 08:57:31;;;;;;;5.50;4.77;;;13.10;32.90;;;;;;4991861;28;20486;-73
2021/03/06 08:59:59;;;;;;;9.60;5.93;;;13.50;32.20;;;;;;4994555;28;20564;-72
2021/03/06 09:02:30;;;;;;;7.53;5.00;;;13.80;32.50;;;;;;5011787;28;20497;-72
2021/03/06 09:05:24;;;;;;;7.70;5.10;;;13.00;31.10;;;;;;4994151;28;20421;-73
2021/03/06 09:07:52;;;;;;;5.70;4.40;;;13.00;32.70;;;;;;5008467;28;20488;-72
2021/03/06 09:10:19;;;;;;;5.37;4.30;;;12.90;32.10;;;;;;5023431;28;20444;-72
2021/03/06 09:12:46;;;;;;;5.27;4.00;;;13.30;31.20;;;;;;5005873;28;20449;-74
2021/03/06 09:15:23;;;;;;;6.60;4.13;;;13.70;31.40;;;;;;5002798;28;20792;-76
2021/03/06 09:17:49;;;;;;;7.83;4.20;;;14.10;30.10;;;;;;4982348;28;20445;-76
2021/03/06 09:20:15;;;;;;;8.80;4.40;;;14.30;30.10;;;;;;5003252;28;20503;-76
2021/03/06 09:22:48;;;;;;;5.67;4.27;;;14.80;29.80;;;;;;4995433;28;20417;-77
2021/03/06 09:25:26;;;;;;;6.63;5.27;;;15.30;29.00;;;;;;5013535;28;20418;-75
2021/03/06 09:27:52;;;;;;;7.37;4.60;;;15.40;28.10;;;;;;5011028;28;20405;-75
2021/03/06 09:30:27;;;;;;;5.50;4.00;;;14.80;28.10;;;;;;4976214;28;21013;-75
2021/03/06 09:32:53;;;;;;;4.70;3.80;;;15.00;28.80;;;;;;4996617;28;20175;-75
2021/03/06 09:35:20;;;;;;;7.83;4.70;;;14.80;28.30;;;;;;4979917;28;20419;-75
2021/03/06 09:37:46;;;;;;;6.23;4.30;;;14.40;28.00;;;;;;5014628;28;20549;-76
2021/03/06 09:40:21;;;;;;;6.33;4.77;;;14.50;28.40;;;;;;4997169;28;20439;-75
2021/03/06 09:42:53;;;;;;;5.90;4.00;;;14.40;28.90;;;;;;5006872;28;20434;-75
2021/03/06 09:45:19;;;;;;;7.57;4.70;;;14.60;28.50;;;;;;5016910;28;20398;-75
2021/03/06 09:47:45;;;;;;;8.03;4.87;;;14.70;28.40;;;;;;5017034;28;20449;-75
2021/03/06 09:50:13;;;;;;;6.23;4.23;;;14.60;28.70;;;;;;5009863;28;20191;-73
2021/03/06 09:52:39;;;;;;;7.50;5.13;;;14.60;28.50;;;;;;4994896;28;20446;-76
2021/03/06 09:55:16;;;;;;;8.00;5.30;;;14.90;28.50;;;;;;5011520;28;21110;-76
2021/03/06 09:57:42;;;;;;;8.30;4.80;;;14.90;28.10;;;;;;5007284;28;20186;-76
2021/03/06 10:00:08;;;;;;;5.50;4.67;;;14.30;28.40;;;;;;5005936;28;20442;-75
2021/03/06 10:02:47;;;;;;;8.27;4.70;;;14.20;28.90;;;;;;5008554;28;20255;-75
2021/03/06 10:05:13;;;;;;;6.60;4.60;;;14.50;28.50;;;;;;5006268;28;20947;-75
2021/03/06 10:07:41;;;;;;;11.00;5.97;;;14.60;28.30;;;;;;5016887;28;20525;-76
2021/03/06 10:10:07;;;;;;;6.77;4.83;;;14.30;28.70;;;;;;5016498;28;20592;-75
2021/03/06 10:12:33;;;;;;;5.47;4.47;;;14.20;29.30;;;;;;5019792;28;20468;-75
2021/03/06 10:14:59;;;;;;;5.17;4.10;;;14.50;28.40;;;;;;5007388;28;20422;-76
2021/03/06 10:17:25;;;;;;;10.00;4.03;;;14.70;27.90;;;;;;5031885;28;20210;-74
2021/03/06 10:19:52;;;;;;;6.37;5.17;;;14.80;27.60;;;;;;5018101;28;20171;-74
2021/03/06 10:22:19;;;;;;;6.80;3.83;;;15.10;27.30;;;;;;5019785;28;20564;-75
2021/03/06 10:24:54;;;;;;;6.43;4.17;;;15.10;27.10;;;;;;4999456;28;20414;-76
2021/03/06 10:27:33;;;;;;;6.10;4.23;;;15.10;27.10;;;;;;4985637;28;20422;-75
2021/03/06 10:30:11;;;;;;;6.10;4.77;;;14.80;27.60;;;;;;5015859;28;20449;-78
2021/03/06 10:32:41;;;;;;;5.60;4.00;;;14.10;28.30;;;;;;5035417;28;20445;-75
2021/03/06 10:35:27;;;;;;;6.33;4.63;;;13.50;28.40;;;;;;5028248;28;20418;-74
2021/03/06 10:37:53;;;;;;;6.80;4.67;;;12.70;29.00;;;;;;5016914;28;20449;-73
2021/03/06 10:40:19;;;;;;;6.10;3.63;;;11.80;29.30;;;;;;5011017;28;20832;-77
2021/03/06 10:42:52;;;;;;;3.40;2.47;;;11.10;29.20;;;;;;5009911;28;20183;-76
2021/03/06 10:45:27;;;;;;;3.27;2.10;;;10.90;29.40;;;;;;4993339;28;20207;-80
2021/03/06 10:47:55;;;;;;;3.90;2.60;;;10.60;28.80;;;;;;5015780;28;20536;-78
2021/03/06 10:50:32;;;;;;;6.23;3.33;;;10.30;29.10;;;;;;5016827;28;20788;-77
2021/03/06 10:53:16;;;;;;;6.60;2.90;;;9.90;30.60;;;;;;5001202;28;20956;-77
2021/03/06 10:55:43;;;;;;;4.63;3.10;;;9.70;31.30;;;;;;5017406;28;20560;-77
2021/03/06 10:58:09;;;;;;;6.03;3.50;;;9.40;31.40;;;;;;5014979;28;20549;-78
2021/03/06 11:00:36;;;;;;;6.17;3.67;;;9.30;32.00;;;;;;5015553;28;20532;-78
2021/03/06 11:03:03;;;;;;;3.00;2.70;;;9.20;31.60;;;;;;4994641;28;20434;-75
2021/03/06 11:05:30;;;;;;;5.73;4.70;;;9.10;32.20;;;;;;4996405;28;20516;-77
2021/03/06 11:07:58;;;;;;;5.50;3.40;;;8.90;32.50;;;;;;5014376;28;20445;-77
2021/03/06 11:10:27;;;;;;;7.13;4.40;;;8.80;32.70;;;;;;5018901;28;20434;-80
2021/03/06 11:12:57;;;;;;;9.37;3.67;;;8.70;32.90;;;;;;5020006;28;20422;-77
2021/03/06 11:15:28;;;;;;;3.27;2.80;;;8.50;32.90;;;;;;5018692;28;20426;-78
2021/03/06 11:17:56;;;;;;;11.23;4.77;;;8.40;33.60;;;;;;4996969;28;20454;-76
2021/03/06 11:20:26;;;;;;;6.27;4.27;;;8.30;34.40;;;;;;5013164;28;20453;-75
2021/03/06 11:22:52;;;;;;;5.43;3.47;;;8.20;35.00;;;;;;5001913;28;20406;-77
2021/03/06 11:25:19;;;;;;;5.90;4.20;;;8.10;35.00;;;;;;5011688;28;21046;-73
2021/03/06 11:27:49;;;;;;;4.07;3.10;;;8.00;35.70;;;;;;4990578;28;20544;-76
2021/03/06 11:30:21;;;;;;;6.10;3.77;;;7.90;35.40;;;;;;5011241;28;20441;-76
2021/03/06 11:32:47;;;;;;;4.50;3.87;;;7.80;35.60;;;;;;5014706;28;20410;-78
2021/03/06 11:35:14;;;;;;;8.50;3.00;;;7.80;35.70;;;;;;5012869;28;20442;-76
2021/03/06 11:37:40;;;;;;;5.90;4.00;;;7.80;35.40;;;;;;5012905;28;20469;-77
2021/03/06 11:40:07;;;;;;;13.50;6.33;;;7.80;35.50;;;;;;5014602;28;20541;-77
2021/03/06 11:42:34;;;;;;;5.70;3.90;;;8.00;35.60;;;;;;5015134;28;20868;-78
2021/03/06 11:45:00;;;;;;;4.30;3.53;;;8.00;35.30;;;;;;5016822;28;20481;-78
2021/03/06 11:47:26;;;;;;;14.47;7.70;;;8.00;35.50;;;;;;5015267;28;20767;-77
2021/03/06 11:49:51;;;;;;;4.20;3.20;;;8.00;35.70;;;;;;5012343;28;20502;-77
2021/03/06 11:52:17;;;;;;;7.77;3.70;;;8.10;35.30;;;;;;5011847;28;20591;-76
2021/03/06 11:54:43;;;;;;;6.23;3.70;;;8.00;35.00;;;;;;5009030;28;20183;-76
2021/03/06 11:57:09;;;;;;;6.10;3.60;;;8.00;35.10;;;;;;4996391;28;20203;-77
2021/03/06 11:59:34;;;;;;;4.93;3.43;;;7.90;35.40;;;;;;4994634;28;20201;-78
2021/03/06 12:02:00;;;;;;;5.93;3.90;;;8.00;35.30;;;;;;5013741;28;20183;-76
2021/03/06 12:04:26;;;;;;;5.73;4.20;;;8.00;34.60;;;;;;5006556;28;20176;-78
2021/03/06 12:06:52;;;;;;;5.40;3.33;;;8.10;33.50;;;;;;5016024;28;20792;-76
2021/03/06 12:09:17;;;;;;;5.73;3.50;;;8.10;33.00;;;;;;5012270;28;20267;-76
2021/03/06 12:11:43;;;;;;;10.00;3.63;;;8.20;33.10;;;;;;4995943;28;20253;-77
2021/03/06 12:14:09;;;;;;;6.63;3.07;;;8.20;31.60;;;;;;5013144;28;20909;-77
2021/03/06 12:16:36;;;;;;;4.43;3.23;;;8.20;30.70;;;;;;4991861;28;20216;-77
2021/03/06 12:19:02;;;;;;;7.40;3.50;;;8.20;30.60;;;;;;5013500;28;20203;-77
2021/03/06 12:21:28;;;;;;;5.70;2.70;;;8.10;31.80;;;;;;5009322;28;20433;-77
2021/03/06 12:23:54;;;;;;;9.20;4.80;;;8.20;31.80;;;;;;5013860;28;20409;-75
2021/03/06 12:26:19;;;;;;;7.47;3.40;;;8.20;31.80;;;;;;5013951;28;20171;-76
2021/03/06 12:28:45;;;;;;;4.90;3.80;;;8.20;31.90;;;;;;5012539;28;20198;-77
2021/03/06 12:31:11;;;;;;;9.20;4.20;;;8.30;32.70;;;;;;5007684;28;20179;-75
2021/03/06 12:33:37;;;;;;;3.90;2.33;;;8.40;31.90;;;;;;5012402;28;20186;-76
2021/03/06 12:36:02;;;;;;;4.80;2.80;;;8.40;31.90;;;;;;5005530;28;20243;-74
2021/03/06 12:38:28;;;;;;;5.57;3.53;;;8.40;31.50;;;;;;5010907;28;20470;-76
2021/03/06 12:40:54;;;;;;;7.30;3.93;;;8.50;31.80;;;;;;5013855;28;20171;-77
2021/03/06 12:43:19;;;;;;;8.50;3.40;;;8.50;31.20;;;;;;5011821;28;20167;-76
2021/03/06 12:45:45;;;;;;;5.17;3.40;;;8.50;31.80;;;;;;5011542;28;20247;-76
2021/03/06 12:48:11;;;;;;;4.80;3.20;;;8.50;31.50;;;;;;4996629;28;20213;-77
2021/03/06 12:50:37;;;;;;;9.83;4.30;;;8.60;31.80;;;;;;5009971;28;20199;-77
2021/03/06 12:53:03;;;;;;;8.67;4.93;;;8.70;31.60;;;;;;5006495;28;20421;-76